Time;durP1;ratioP1;P1;durP2;ratioP2;P2;SDS_P1;SDS_P2;PMS_P1;PMS_P2;Temp;Humidity;BMP_temperature;BMP_pressure;BME280_temperature;BME280_humidity;BME280_pressure;Samples;Min_cycle;Max_cycle;Signal;HPM_P1;HPM_P2
2022/11/13 00:03:10;;;;;;;12.55;7.72;;;14.70;90.30;;;;;;5054540;28;20059;-68
2022/11/13 00:06:32;;;;;;;18.05;7.78;;;14.60;91.00;;;;;;5053781;28;20396;-68
2022/11/13 00:09:54;;;;;;;22.65;8.10;;;14.60;91.10;;;;;;5054102;28;20048;-70
2022/11/13 00:13:17;;;;;;;20.30;8.40;;;14.50;91.40;;;;;;5054259;28;20504;-69
2022/11/13 00:16:39;;;;;;;14.38;7.68;;;14.50;91.40;;;;;;5054025;28;20037;-70
2022/11/13 00:20:03;;;;;;;15.30;8.40;;;14.50;91.40;;;;;;5054028;28;20052;-69
2022/11/13 00:23:25;;;;;;;12.55;7.60;;;14.60;91.20;;;;;;5053934;28;20056;-69
2022/11/13 00:26:47;;;;;;;14.77;8.07;;;14.60;91.10;;;;;;5053533;28;20052;-70
2022/11/13 00:30:10;;;;;;;18.52;8.75;;;14.50;91.10;;;;;;5053170;28;20048;-69
2022/11/13 00:33:33;;;;;;;18.38;8.48;;;14.50;91.00;;;;;;5054138;28;20040;-68
2022/11/13 00:36:56;;;;;;;15.05;8.18;;;14.30;91.30;;;;;;5053226;28;20063;-69
2022/11/13 00:40:19;;;;;;;15.38;8.20;;;14.30;91.60;;;;;;5053492;28;20056;-69
2022/11/13 00:43:42;;;;;;;17.55;9.77;;;14.30;91.50;;;;;;5053628;28;20381;-69
2022/11/13 00:47:05;;;;;;;13.20;7.60;;;14.20;91.70;;;;;;5053326;28;20052;-69
2022/11/13 00:50:28;;;;;;;10.13;6.75;;;14.10;91.80;;;;;;5053182;28;20048;-70
2022/11/13 00:53:51;;;;;;;10.82;6.00;;;14.20;91.50;;;;;;5053302;28;20511;-69
2022/11/13 00:57:13;;;;;;;9.77;5.30;;;14.30;91.40;;;;;;5052839;28;20048;-70
2022/11/13 01:00:37;;;;;;;11.10;4.78;;;14.40;91.50;;;;;;5052982;28;20056;-69
2022/11/13 01:04:00;;;;;;;7.88;4.20;;;14.50;91.30;;;;;;5052968;28;20523;-69
2022/11/13 01:07:23;;;;;;;5.30;3.63;;;14.60;91.30;;;;;;5052098;28;20048;-69
2022/11/13 01:10:48;;;;;;;5.70;3.92;;;14.60;91.20;;;;;;5052965;28;20044;-69
2022/11/13 01:14:11;;;;;;;7.72;3.55;;;14.60;91.10;;;;;;5052626;28;20044;-69
2022/11/13 01:17:33;;;;;;;7.60;3.95;;;14.70;91.20;;;;;;5053016;28;20048;-69
2022/11/13 01:21:12;;;;;;;6.53;3.25;;;14.70;91.10;;;;;;5052709;28;20047;-68
2022/11/13 01:24:35;;;;;;;8.05;3.70;;;14.70;91.20;;;;;;5052905;28;20052;-69
2022/11/13 01:27:57;;;;;;;7.15;4.20;;;14.70;91.20;;;;;;5053140;28;20047;-71
2022/11/13 01:31:23;;;;;;;6.22;3.65;;;14.70;90.90;;;;;;5052856;28;20040;-69
2022/11/13 01:34:46;;;;;;;6.07;3.50;;;14.70;90.90;;;;;;5052768;28;20048;-70
2022/11/13 01:38:09;;;;;;;7.82;3.78;;;14.70;90.70;;;;;;5052359;28;20499;-70
2022/11/13 01:41:33;;;;;;;5.93;3.15;;;14.70;90.70;;;;;;5052466;28;20064;-69
2022/11/13 01:44:59;;;;;;;6.63;3.70;;;14.60;90.50;;;;;;5052604;28;20051;-68
2022/11/13 01:48:22;;;;;;;5.10;3.38;;;14.60;90.60;;;;;;5052078;28;20052;-69
2022/11/13 01:51:51;;;;;;;6.07;4.40;;;14.70;90.70;;;;;;5052090;28;20049;-69
2022/11/13 01:55:17;;;;;;;6.18;3.72;;;14.70;90.80;;;;;;5052011;28;20048;-69
2022/11/13 01:58:43;;;;;;;6.90;4.10;;;14.60;91.20;;;;;;5052232;28;20036;-69
2022/11/13 02:02:06;;;;;;;6.63;4.10;;;14.60;91.00;;;;;;5052312;28;20048;-69
2022/11/13 02:05:29;;;;;;;5.68;3.60;;;14.50;90.90;;;;;;5051980;28;20401;-69
2022/11/13 02:08:52;;;;;;;7.38;4.03;;;14.60;91.00;;;;;;5051880;28;20039;-69
2022/11/13 02:12:20;;;;;;;7.78;3.80;;;14.50;91.00;;;;;;5051896;28;20424;-69
2022/11/13 02:15:44;;;;;;;4.80;3.58;;;14.60;90.70;;;;;;5051819;28;20393;-68
2022/11/13 02:19:14;;;;;;;4.60;3.28;;;14.50;90.10;;;;;;5050899;28;20048;-69
2022/11/13 02:22:49;;;;;;;9.63;4.00;;;14.50;90.40;;;;;;5051920;28;20056;-69
2022/11/13 02:26:12;;;;;;;4.28;3.72;;;14.60;90.50;;;;;;5051483;28;20518;-69
2022/11/13 02:29:34;;;;;;;6.20;3.40;;;14.60;90.70;;;;;;5051156;28;20052;-70
2022/11/13 02:32:58;;;;;;;4.70;3.38;;;14.60;90.30;;;;;;5051481;28;20047;-69
2022/11/13 02:36:24;;;;;;;6.72;3.33;;;14.60;90.10;;;;;;5051533;28;20048;-70
2022/11/13 02:39:46;;;;;;;4.93;3.60;;;14.60;89.50;;;;;;5051240;28;20060;-69
2022/11/13 02:43:09;;;;;;;7.55;3.97;;;14.60;90.10;;;;;;5051591;28;20048;-69
2022/11/13 02:46:32;;;;;;;5.97;3.78;;;14.50;90.40;;;;;;5050490;28;20397;-69
2022/11/13 02:49:54;;;;;;;6.82;3.70;;;14.50;90.40;;;;;;5050821;28;20048;-68
2022/11/13 02:53:17;;;;;;;9.68;3.67;;;14.50;90.60;;;;;;5051289;28;20059;-68
2022/11/13 02:56:39;;;;;;;4.95;3.55;;;14.50;90.50;;;;;;5051331;28;20044;-69
2022/11/13 03:00:04;;;;;;;5.05;3.47;;;14.50;90.70;;;;;;5051037;28;20404;-69
2022/11/13 03:03:26;;;;;;;5.75;3.42;;;14.50;90.70;;;;;;5051315;28;20064;-70
2022/11/13 03:06:49;;;;;;;5.70;4.00;;;14.50;90.40;;;;;;5051247;28;20040;-69
2022/11/13 03:10:11;;;;;;;5.15;3.22;;;14.50;90.60;;;;;;5051106;28;20052;-70
2022/11/13 03:13:34;;;;;;;4.55;3.40;;;14.60;90.60;;;;;;5051278;28;20048;-69
2022/11/13 03:16:56;;;;;;;5.97;3.45;;;14.60;90.10;;;;;;5050842;28;20056;-68
2022/11/13 03:20:19;;;;;;;6.57;4.00;;;14.60;90.50;;;;;;5050639;28;20503;-68
2022/11/13 03:23:45;;;;;;;6.25;3.20;;;14.50;90.40;;;;;;5051063;28;20396;-69
2022/11/13 03:27:08;;;;;;;6.07;3.45;;;14.50;89.70;;;;;;5050554;28;20044;-68
2022/11/13 03:30:31;;;;;;;8.85;3.10;;;14.60;89.90;;;;;;5052272;28;20040;-69
2022/11/13 03:33:54;;;;;;;6.45;3.25;;;14.60;89.80;;;;;;5055165;28;20048;-69
2022/11/13 03:37:16;;;;;;;4.60;3.05;;;14.50;89.00;;;;;;5054742;28;20040;-69
2022/11/13 03:40:38;;;;;;;8.07;3.42;;;14.50;89.30;;;;;;5054599;28;20068;-68
2022/11/13 03:44:01;;;;;;;5.43;3.88;;;14.40;89.60;;;;;;5054866;28;20040;-69
2022/11/13 03:47:23;;;;;;;5.35;3.83;;;14.30;89.90;;;;;;5055032;28;20059;-69
2022/11/13 03:50:48;;;;;;;6.18;3.90;;;14.30;89.40;;;;;;5054405;28;20048;-70
2022/11/13 03:54:11;;;;;;;5.47;3.50;;;14.30;89.90;;;;;;5054736;28;20405;-69
2022/11/13 03:57:34;;;;;;;5.28;3.42;;;14.20;89.50;;;;;;5054235;28;20040;-69
2022/11/13 04:00:56;;;;;;;3.95;3.47;;;14.30;89.70;;;;;;5054625;28;20076;-69
2022/11/13 04:04:19;;;;;;;6.65;3.78;;;14.30;90.00;;;;;;5054618;28;20048;-69
2022/11/13 04:07:42;;;;;;;5.40;3.10;;;14.30;90.10;;;;;;5055037;28;20100;-68
2022/11/13 04:11:06;;;;;;;5.07;3.60;;;14.20;90.30;;;;;;5054219;28;20052;-68
2022/11/13 04:14:28;;;;;;;4.18;3.25;;;14.30;90.40;;;;;;5054845;28;20048;-68
2022/11/13 04:17:51;;;;;;;3.83;3.10;;;14.30;90.50;;;;;;5053948;28;20036;-69
2022/11/13 04:21:14;;;;;;;4.45;3.17;;;14.30;90.20;;;;;;5053967;28;20056;-70
2022/11/13 04:24:37;;;;;;;4.65;2.72;;;14.20;90.10;;;;;;5054142;28;20048;-67
2022/11/13 04:27:59;;;;;;;3.50;2.85;;;14.30;90.10;;;;;;5053883;28;20036;-68
2022/11/13 04:31:21;;;;;;;4.60;2.88;;;14.30;90.00;;;;;;5053740;28;20040;-70
2022/11/13 04:34:44;;;;;;;8.60;3.90;;;14.20;90.10;;;;;;5053617;28;20051;-69
2022/11/13 04:38:06;;;;;;;7.38;4.72;;;14.30;90.00;;;;;;5053517;28;20079;-68
2022/11/13 04:45:10;;;;;;;9.48;4.05;;;14.20;90.60;;;;;;5053318;28;20044;-69
2022/11/13 04:48:33;;;;;;;4.90;3.53;;;14.10;90.80;;;;;;5053781;28;20044;-70
2022/11/13 04:51:56;;;;;;;7.82;4.07;;;14.20;90.70;;;;;;5053276;28;20076;-70
2022/11/13 04:55:19;;;;;;;6.47;3.85;;;14.10;90.40;;;;;;5053165;28;20040;-69
2022/11/13 04:58:42;;;;;;;9.75;6.75;;;14.10;90.50;;;;;;5053312;28;20040;-69
2022/11/13 05:02:04;;;;;;;7.45;5.53;;;14.00;90.70;;;;;;5053472;28;20397;-69
2022/11/13 05:05:28;;;;;;;7.20;4.75;;;14.00;90.80;;;;;;5053346;28;20048;-67
2022/11/13 05:08:50;;;;;;;5.88;4.13;;;14.00;91.10;;;;;;5053129;28;20392;-67
2022/11/13 05:12:12;;;;;;;6.50;4.32;;;14.00;91.30;;;;;;5053255;28;20072;-69
2022/11/13 05:15:35;;;;;;;6.03;3.85;;;14.10;91.30;;;;;;5051862;28;20512;-69
2022/11/13 05:18:58;;;;;;;5.70;3.53;;;14.10;91.30;;;;;;5052803;28;20073;-69
2022/11/13 05:22:20;;;;;;;6.40;3.30;;;14.10;91.00;;;;;;5052835;28;20078;-69
2022/11/13 05:25:43;;;;;;;9.77;3.65;;;14.10;90.90;;;;;;5052649;28;20048;-69
2022/11/13 05:29:05;;;;;;;7.78;3.85;;;14.10;90.90;;;;;;5052582;28;20044;-70
2022/11/13 05:32:28;;;;;;;4.95;3.38;;;14.10;90.80;;;;;;5052668;28;20535;-68
2022/11/13 05:35:51;;;;;;;4.75;3.70;;;14.10;91.10;;;;;;5052263;28;20040;-68
2022/11/13 05:39:14;;;;;;;4.78;3.30;;;14.10;91.10;;;;;;5052398;28;20040;-68
2022/11/13 05:42:36;;;;;;;5.28;3.88;;;14.10;91.20;;;;;;5051658;28;20059;-67
2022/11/13 05:46:12;;;;;;;7.15;3.80;;;14.10;91.50;;;;;;5052295;28;20040;-70
2022/11/13 05:49:34;;;;;;;6.10;3.70;;;14.10;91.60;;;;;;5051685;28;20298;-69
2022/11/13 05:52:56;;;;;;;9.32;4.70;;;14.10;91.70;;;;;;5052334;28;20075;-69
2022/11/13 05:56:34;;;;;;;5.85;3.58;;;14.00;91.80;;;;;;5052289;28;20052;-69
2022/11/13 05:59:57;;;;;;;7.32;4.07;;;14.10;91.70;;;;;;5052101;28;20053;-68
2022/11/13 06:03:20;;;;;;;9.57;4.00;;;14.00;92.00;;;;;;5051952;28;20040;-69
2022/11/13 06:06:42;;;;;;;6.03;3.72;;;13.90;92.10;;;;;;5051911;28;20500;-68
2022/11/13 06:10:05;;;;;;;6.95;4.60;;;13.90;92.00;;;;;;5052225;28;20044;-70
2022/11/13 06:13:28;;;;;;;6.50;4.07;;;13.90;91.90;;;;;;5051134;28;20037;-69
2022/11/13 06:16:51;;;;;;;7.70;4.60;;;14.10;92.10;;;;;;5051539;28;20047;-69
2022/11/13 06:20:14;;;;;;;6.10;4.05;;;14.10;91.90;;;;;;5051818;28;20524;-68
2022/11/13 06:23:38;;;;;;;7.15;4.55;;;14.10;91.90;;;;;;5051971;28;20398;-70
2022/11/13 06:27:00;;;;;;;9.77;4.80;;;14.20;91.90;;;;;;5051365;28;20048;-68
2022/11/13 06:30:23;;;;;;;8.40;5.05;;;14.20;91.90;;;;;;5051616;28;20040;-69
2022/11/13 06:33:46;;;;;;;7.93;4.13;;;14.30;91.80;;;;;;5051406;28;20040;-69
2022/11/13 06:37:08;;;;;;;5.93;4.20;;;14.20;91.60;;;;;;5051606;28;20044;-68
2022/11/13 06:40:30;;;;;;;6.38;4.40;;;14.20;91.60;;;;;;5051376;28;20052;-69
2022/11/13 06:43:53;;;;;;;6.20;3.60;;;14.20;91.00;;;;;;5051525;28;20388;-70
2022/11/13 06:47:16;;;;;;;6.35;2.28;;;14.30;91.10;;;;;;5051011;28;20048;-68
2022/11/13 06:50:38;;;;;;;3.88;2.30;;;14.40;90.70;;;;;;5051458;28;20500;-69
2022/11/13 06:54:01;;;;;;;2.95;1.70;;;14.60;90.50;;;;;;5051422;28;20048;-70
2022/11/13 06:57:23;;;;;;;2.38;1.45;;;14.80;89.50;;;;;;5051051;28;20036;-68
2022/11/13 07:00:46;;;;;;;2.38;1.67;;;15.10;89.00;;;;;;5051227;28;20060;-70
2022/11/13 07:04:11;;;;;;;2.10;1.40;;;15.30;87.40;;;;;;5051366;28;20040;-69
2022/11/13 07:07:33;;;;;;;1.77;1.30;;;15.40;88.10;;;;;;5051162;28;20044;-70
2022/11/13 07:10:57;;;;;;;1.60;1.10;;;15.60;87.80;;;;;;5050445;28;20400;-70
2022/11/13 07:14:20;;;;;;;1.45;1.13;;;15.80;86.40;;;;;;5050769;28;20036;-69
2022/11/13 07:17:43;;;;;;;1.92;1.33;;;16.20;86.30;;;;;;5050785;28;20048;-70
2022/11/13 07:21:07;;;;;;;1.15;1.05;;;16.60;84.60;;;;;;5050798;28;20057;-70
2022/11/13 07:24:30;;;;;;;2.05;1.40;;;16.70;84.10;;;;;;5050568;28;20044;-70
2022/11/13 07:27:53;;;;;;;1.63;1.35;;;16.80;83.00;;;;;;5051051;28;20052;-70
2022/11/13 07:31:17;;;;;;;1.73;1.27;;;16.80;83.60;;;;;;5050817;28;20045;-69
2022/11/13 07:34:39;;;;;;;1.42;1.00;;;16.60;83.10;;;;;;5050891;28;20036;-70
2022/11/13 07:38:01;;;;;;;1.75;1.27;;;16.50;83.00;;;;;;5050781;28;20096;-70
2022/11/13 07:41:24;;;;;;;2.58;1.30;;;16.30;83.30;;;;;;5050491;28;20056;-69
2022/11/13 07:44:46;;;;;;;1.20;0.90;;;16.10;83.50;;;;;;5050763;28;20040;-70
2022/11/13 07:48:09;;;;;;;1.75;1.00;;;15.90;84.10;;;;;;5050631;28;20052;-70
2022/11/13 07:51:32;;;;;;;2.00;1.25;;;15.90;84.60;;;;;;5050339;28;20055;-68
2022/11/13 07:54:55;;;;;;;14.25;1.42;;;16.10;84.10;;;;;;5050639;28;20052;-69
2022/11/13 07:58:17;;;;;;;1.98;1.13;;;16.40;83.40;;;;;;5050460;28;20393;-71
2022/11/13 08:01:40;;;;;;;1.27;1.00;;;16.40;83.10;;;;;;5050553;28;20056;-69
2022/11/13 08:05:03;;;;;;;1.30;1.10;;;16.50;83.00;;;;;;5050590;28;20052;-70
2022/11/13 08:08:26;;;;;;;1.35;1.00;;;16.40;82.70;;;;;;5050456;28;20040;-70
2022/11/13 08:11:48;;;;;;;8.23;1.20;;;16.30;84.40;;;;;;5050609;28;20109;-70
2022/11/13 08:15:12;;;;;;;1.95;1.30;;;16.10;83.70;;;;;;5050126;28;20044;-70
2022/11/13 08:18:35;;;;;;;1.65;1.33;;;16.00;83.90;;;;;;5054154;28;20040;-69
2022/11/13 08:21:58;;;;;;;3.70;1.70;;;16.00;84.20;;;;;;5053847;28;20056;-69
2022/11/13 08:25:20;;;;;;;3.05;1.92;;;15.90;85.20;;;;;;5053591;28;20073;-69
2022/11/13 08:28:43;;;;;;;2.70;1.58;;;15.90;85.00;;;;;;5053843;28;20047;-70
2022/11/13 08:32:06;;;;;;;2.17;1.77;;;15.90;85.80;;;;;;5053724;28;20048;-69
2022/11/13 08:35:29;;;;;;;2.55;1.60;;;16.10;85.90;;;;;;5052653;28;20052;-70
2022/11/13 08:38:52;;;;;;;3.60;1.63;;;16.20;85.20;;;;;;5053495;28;20048;-71
2022/11/13 08:42:14;;;;;;;2.22;1.48;;;16.30;84.90;;;;;;5053002;28;20044;-70
2022/11/13 08:45:36;;;;;;;5.22;2.10;;;16.40;85.20;;;;;;5052556;28;20060;-68
2022/11/13 08:48:58;;;;;;;2.53;1.52;;;16.60;85.20;;;;;;5053337;28;20392;-69
2022/11/13 08:52:21;;;;;;;4.63;2.35;;;16.60;84.90;;;;;;5053415;28;20495;-70
2022/11/13 08:55:44;;;;;;;3.90;2.80;;;16.80;84.00;;;;;;5053319;28;20400;-70
2022/11/13 08:59:07;;;;;;;3.95;2.13;;;16.80;83.80;;;;;;5053366;28;20040;-69
2022/11/13 09:02:30;;;;;;;3.25;2.20;;;16.80;84.30;;;;;;5052963;28;20056;-70
2022/11/13 09:05:52;;;;;;;4.60;2.40;;;17.00;84.00;;;;;;5052193;28;20048;-69
2022/11/13 09:09:15;;;;;;;3.75;2.30;;;17.00;84.50;;;;;;5053275;28;20040;-69
2022/11/13 09:12:37;;;;;;;3.45;2.05;;;17.00;84.20;;;;;;5053270;28;20055;-69
2022/11/13 09:16:01;;;;;;;4.93;2.13;;;17.10;84.90;;;;;;5052849;28;20044;-70
2022/11/13 09:19:24;;;;;;;3.85;2.00;;;17.10;84.40;;;;;;5052588;28;20040;-68
2022/11/13 09:22:46;;;;;;;3.05;2.20;;;17.10;83.10;;;;;;5052835;28;20060;-70
2022/11/13 09:26:09;;;;;;;2.88;1.50;;;17.10;82.80;;;;;;5052267;28;20044;-69
2022/11/13 09:29:31;;;;;;;3.25;1.20;;;17.10;82.20;;;;;;5051824;28;20044;-68
2022/11/13 09:32:56;;;;;;;3.08;2.00;;;17.20;82.60;;;;;;5052449;28;20048;-71
2022/11/13 09:36:19;;;;;;;4.53;2.15;;;17.20;84.40;;;;;;5052551;28;20048;-70
2022/11/13 09:39:41;;;;;;;4.35;2.80;;;17.20;84.30;;;;;;5051621;28;20428;-69
2022/11/13 09:43:10;;;;;;;5.63;2.50;;;17.30;85.30;;;;;;5051099;28;20047;-69
2022/11/13 09:47:00;;;;;;;8.73;3.47;;;17.40;85.50;;;;;;5051712;28;20302;-68
2022/11/13 09:50:26;;;;;;;4.68;3.33;;;17.40;84.50;;;;;;5051967;28;20052;-69
2022/11/13 09:53:49;;;;;;;6.35;3.22;;;17.40;84.60;;;;;;5052353;28;20056;-69
2022/11/13 09:57:30;;;;;;;6.28;3.53;;;17.50;84.70;;;;;;5052319;28;20048;-70
2022/11/13 10:00:53;;;;;;;6.30;3.15;;;17.50;84.80;;;;;;5051510;28;20380;-69
2022/11/13 10:04:30;;;;;;;6.15;3.38;;;17.60;83.80;;;;;;5052963;28;20619;-72
2022/11/13 10:08:13;;;;;;;5.82;2.88;;;17.60;83.50;;;;;;5052602;28;20044;-69
2022/11/13 10:11:44;;;;;;;3.45;2.13;;;17.90;82.90;;;;;;5051609;28;20393;-70
2022/11/13 10:15:09;;;;;;;3.22;2.00;;;18.50;81.50;;;;;;5052302;28;20060;-69
2022/11/13 10:18:36;;;;;;;7.82;2.45;;;18.70;81.40;;;;;;5052394;28;20044;-69
2022/11/13 10:22:14;;;;;;;3.38;1.90;;;18.70;80.10;;;;;;5051856;28;20055;-70
2022/11/13 10:25:38;;;;;;;4.78;1.95;;;18.60;80.50;;;;;;5051632;28;20044;-70
2022/11/13 10:29:09;;;;;;;5.70;2.28;;;18.50;79.70;;;;;;5051347;28;20048;-69
2022/11/13 10:32:32;;;;;;;3.40;1.92;;;18.30;79.90;;;;;;5051605;28;20048;-71
2022/11/13 10:36:22;;;;;;;4.47;2.55;;;18.10;80.70;;;;;;5050821;28;20048;-70
2022/11/13 10:39:45;;;;;;;5.80;2.78;;;18.00;81.80;;;;;;5050366;28;20048;-71
2022/11/13 10:43:15;;;;;;;4.60;2.85;;;18.00;81.80;;;;;;5051442;28;20052;-71
2022/11/13 10:46:37;;;;;;;3.25;2.10;;;18.00;81.90;;;;;;5050477;28;20044;-69
2022/11/13 10:50:21;;;;;;;4.47;2.28;;;17.90;80.70;;;;;;5050579;28;20052;-69
2022/11/13 10:53:44;;;;;;;4.57;2.90;;;18.00;81.00;;;;;;5051278;28;20040;-69
2022/11/13 10:57:32;;;;;;;4.55;2.60;;;18.10;80.80;;;;;;5050827;28;20060;-69
2022/11/13 11:00:54;;;;;;;4.32;2.55;;;18.20;80.00;;;;;;5050881;28;20056;-69
2022/11/13 11:04:28;;;;;;;3.65;2.60;;;18.30;79.50;;;;;;5051063;28;20044;-70
2022/11/13 11:07:53;;;;;;;5.45;3.00;;;18.30;79.30;;;;;;5050999;28;20048;-72
2022/11/13 11:15:21;;;;;;;7.30;2.97;;;18.20;79.80;;;;;;5050842;28;20507;-71
2022/11/13 11:19:03;;;;;;;5.88;3.15;;;18.10;79.50;;;;;;5050655;28;20052;-71
2022/11/13 11:22:32;;;;;;;4.07;2.33;;;18.00;80.90;;;;;;5050336;28;20051;-69
2022/11/13 11:26:07;;;;;;;5.78;2.65;;;17.90;80.90;;;;;;5050776;28;20477;-69
2022/11/13 11:29:40;;;;;;;4.78;2.85;;;17.90;80.60;;;;;;5050580;28;20511;-69
2022/11/13 11:33:10;;;;;;;5.50;3.35;;;17.90;81.10;;;;;;5050488;28;20043;-70
2022/11/13 11:36:45;;;;;;;4.50;2.63;;;17.90;80.90;;;;;;5050567;28;20044;-69
2022/11/13 11:40:29;;;;;;;6.75;4.10;;;18.00;80.10;;;;;;5050568;28;20040;-70
2022/11/13 11:44:23;;;;;;;5.30;2.40;;;18.10;78.60;;;;;;5050643;28;20108;-68
2022/11/13 11:47:46;;;;;;;4.88;2.47;;;18.10;78.40;;;;;;5050183;28;20048;-69
2022/11/13 11:51:25;;;;;;;3.83;2.60;;;18.10;78.70;;;;;;5050585;28;20060;-68
2022/11/13 11:55:40;;;;;;;3.45;2.22;;;18.10;79.00;;;;;;5054027;28;20147;-70
2022/11/13 11:59:24;;;;;;;4.28;2.03;;;18.10;80.80;;;;;;5023168;28;20040;-70
2022/11/13 12:03:06;;;;;;;4.40;2.17;;;18.30;81.10;;;;;;5054231;28;20124;-70
2022/11/13 12:06:47;;;;;;;2.97;1.92;;;18.30;81.30;;;;;;5053745;28;20047;-69
2022/11/13 12:10:36;;;;;;;5.35;2.40;;;18.30;81.20;;;;;;5053904;28;20040;-69
2022/11/13 12:14:10;;;;;;;3.40;2.38;;;18.20;81.60;;;;;;5054204;28;20064;-68
2022/11/13 12:17:35;;;;;;;5.57;2.33;;;18.20;82.30;;;;;;5053919;28;20499;-69
2022/11/13 12:21:01;;;;;;;4.47;2.45;;;18.10;83.40;;;;;;5053814;28;20056;-69
2022/11/13 12:24:49;;;;;;;5.57;2.92;;;18.00;83.60;;;;;;5054119;28;20048;-69
2022/11/13 12:28:30;;;;;;;3.83;2.47;;;17.70;84.10;;;;;;5054118;28;20048;-69
2022/11/13 12:31:53;;;;;;;5.93;2.55;;;17.60;84.10;;;;;;5053915;28;20044;-69
2022/11/13 12:35:21;;;;;;;3.78;2.60;;;17.50;84.70;;;;;;5053353;28;20040;-69
2022/11/13 12:39:25;;;;;;;6.82;2.53;;;17.50;85.40;;;;;;5053351;28;20046;-69
2022/11/13 12:42:55;;;;;;;5.22;2.78;;;17.30;85.70;;;;;;5053691;28;20060;-68
2022/11/13 12:46:18;;;;;;;3.70;2.90;;;17.20;86.10;;;;;;5053629;28;20047;-69
2022/11/13 12:49:41;;;;;;;4.38;3.08;;;17.10;86.00;;;;;;5053358;28;20045;-68
2022/11/13 12:53:09;;;;;;;8.13;5.10;;;17.00;87.00;;;;;;5053522;28;20044;-70
2022/11/13 12:56:33;;;;;;;8.85;4.45;;;17.00;87.40;;;;;;5053098;28;20048;-69
2022/11/13 12:59:59;;;;;;;7.57;3.65;;;17.00;87.90;;;;;;5053518;28;20047;-69
2022/11/13 13:03:48;;;;;;;8.57;3.75;;;17.00;87.90;;;;;;5052391;28;20388;-70
2022/11/13 13:07:29;;;;;;;10.35;3.60;;;17.00;88.20;;;;;;5053305;28;20052;-69
2022/11/13 13:10:55;;;;;;;4.53;3.70;;;17.00;88.60;;;;;;5053102;28;20036;-69
2022/11/13 13:14:20;;;;;;;6.78;3.25;;;17.00;88.80;;;;;;5053022;28;20052;-69
2022/11/13 13:17:43;;;;;;;3.97;2.80;;;17.00;88.80;;;;;;5053154;28;20044;-69
2022/11/13 13:21:14;;;;;;;5.43;3.08;;;17.10;88.10;;;;;;5052821;28;20072;-67
2022/11/13 13:24:40;;;;;;;6.55;3.80;;;17.20;87.70;;;;;;5051995;28;20088;-69
2022/11/13 13:28:20;;;;;;;14.80;9.20;;;17.30;87.30;;;;;;5053107;28;20048;-69
2022/11/13 13:32:17;;;;;;;5.68;2.78;;;17.40;87.50;;;;;;5052584;28;20052;-69
2022/11/13 13:35:50;;;;;;;3.90;2.17;;;17.40;86.80;;;;;;5051648;28;20051;-69
2022/11/13 13:39:24;;;;;;;2.40;2.05;;;17.40;86.10;;;;;;5052531;28;20056;-71
2022/11/13 13:43:12;;;;;;;5.55;3.25;;;17.40;86.20;;;;;;5052449;28;20056;-69
2022/11/13 13:46:36;;;;;;;3.42;2.50;;;17.40;87.20;;;;;;5052607;28;20047;-69
2022/11/13 13:49:58;;;;;;;4.90;2.95;;;17.30;87.30;;;;;;5051857;28;20520;-69
2022/11/13 13:53:25;;;;;;;5.68;3.10;;;17.30;87.10;;;;;;5052011;28;20048;-68
2022/11/13 13:56:48;;;;;;;4.00;2.63;;;17.30;87.80;;;;;;5051414;28;20400;-70
2022/11/13 14:00:12;;;;;;;3.72;2.55;;;17.30;87.60;;;;;;5052220;28;20040;-71
2022/11/13 14:03:35;;;;;;;4.65;3.20;;;17.30;87.60;;;;;;5052066;28;20056;-70
2022/11/13 14:06:59;;;;;;;4.18;2.85;;;17.30;87.80;;;;;;5052048;28;20052;-68
2022/11/13 14:10:24;;;;;;;3.83;2.70;;;17.30;87.30;;;;;;5052134;28;20040;-70
2022/11/13 14:13:47;;;;;;;4.35;2.92;;;17.30;87.40;;;;;;5051433;28;20044;-70
2022/11/13 14:17:10;;;;;;;4.45;2.70;;;17.30;87.50;;;;;;5051971;28;20201;-69
2022/11/13 14:20:38;;;;;;;4.53;3.08;;;17.30;87.20;;;;;;5051401;28;20039;-71
2022/11/13 14:24:02;;;;;;;3.55;2.65;;;17.30;87.60;;;;;;5049302;28;20124;-70
2022/11/13 14:27:27;;;;;;;4.32;2.83;;;17.30;87.40;;;;;;5051208;28;20048;-69
2022/11/13 14:31:10;;;;;;;4.63;3.17;;;17.30;87.00;;;;;;5051065;28;20052;-69
2022/11/13 14:34:34;;;;;;;6.10;3.00;;;17.30;87.60;;;;;;5051436;28;20044;-70
2022/11/13 14:37:57;;;;;;;4.55;3.20;;;17.30;87.90;;;;;;5050626;28;20048;-69
2022/11/13 14:41:34;;;;;;;5.13;3.50;;;17.30;87.90;;;;;;5048644;28;20059;-70
2022/11/13 14:45:24;;;;;;;5.13;3.50;;;17.30;88.30;;;;;;5050513;28;20048;-69
2022/11/13 14:48:55;;;;;;;5.88;3.55;;;17.30;89.20;;;;;;5048535;28;20579;-68
2022/11/13 14:52:23;;;;;;;6.20;3.80;;;17.20;89.20;;;;;;5050179;28;20052;-68
2022/11/13 14:55:54;;;;;;;5.55;4.07;;;17.20;89.50;;;;;;5050374;28;20040;-69
2022/11/13 14:59:26;;;;;;;10.20;3.95;;;17.10;89.80;;;;;;5051009;28;20048;-69
2022/11/13 15:02:48;;;;;;;6.63;4.20;;;17.10;90.00;;;;;;5050948;28;20056;-70
2022/11/13 15:06:15;;;;;;;6.43;4.50;;;17.00;90.20;;;;;;5050864;28;20036;-68
2022/11/13 15:09:37;;;;;;;9.55;4.70;;;17.00;90.20;;;;;;5050675;28;20042;-69
2022/11/13 15:13:00;;;;;;;7.68;5.03;;;17.00;90.40;;;;;;5050841;28;20416;-68
2022/11/13 15:16:27;;;;;;;5.65;4.13;;;16.90;90.50;;;;;;5051003;28;20048;-69
2022/11/13 15:19:53;;;;;;;6.55;4.63;;;16.90;90.60;;;;;;5050750;28;20052;-69
2022/11/13 15:23:16;;;;;;;8.25;4.20;;;16.80;90.60;;;;;;5050795;28;20052;-68
2022/11/13 15:26:39;;;;;;;6.53;4.55;;;16.80;90.90;;;;;;5052381;28;20044;-69
2022/11/13 15:30:02;;;;;;;11.30;4.93;;;16.90;90.60;;;;;;5055071;28;20032;-70
2022/11/13 15:33:25;;;;;;;9.38;6.00;;;16.80;90.70;;;;;;5054933;28;20043;-68
2022/11/13 15:36:47;;;;;;;14.00;8.50;;;16.80;90.80;;;;;;5055114;28;20056;-69
2022/11/13 15:40:11;;;;;;;14.73;9.93;;;16.70;91.00;;;;;;5054692;28;20124;-69
2022/11/13 15:43:33;;;;;;;14.40;9.70;;;16.70;91.10;;;;;;5054741;28;20048;-68
2022/11/13 15:46:56;;;;;;;15.30;10.77;;;16.60;91.20;;;;;;5054204;28;20396;-69
2022/11/13 15:50:19;;;;;;;20.95;10.82;;;16.60;91.30;;;;;;5054045;28;20435;-68
2022/11/13 15:54:00;;;;;;;17.13;12.55;;;16.50;91.40;;;;;;5054840;28;20396;-67
2022/11/13 15:57:26;;;;;;;21.35;13.60;;;16.50;91.60;;;;;;5053608;28;20507;-69
2022/11/13 16:00:49;;;;;;;30.25;17.75;;;16.50;91.60;;;;;;5054879;28;20427;-69
2022/11/13 16:04:13;;;;;;;23.13;15.45;;;16.30;91.80;;;;;;5054470;28;20056;-69
2022/11/13 16:07:36;;;;;;;26.48;15.48;;;16.20;92.10;;;;;;5053945;28;20247;-68
2022/11/13 16:10:59;;;;;;;16.55;10.90;;;16.20;92.20;;;;;;5053298;28;20044;-69
2022/11/13 16:14:23;;;;;;;18.15;12.80;;;16.10;92.30;;;;;;5052717;28;20044;-69
2022/11/13 16:17:49;;;;;;;22.45;13.00;;;16.10;92.30;;;;;;5051743;28;20040;-69
2022/11/13 16:21:13;;;;;;;26.60;15.88;;;16.10;92.30;;;;;;5053977;28;20051;-69
2022/11/13 16:24:35;;;;;;;28.58;17.67;;;16.10;92.20;;;;;;5054172;28;20503;-68
2022/11/13 16:27:58;;;;;;;30.15;19.05;;;16.00;92.10;;;;;;5054529;28;20036;-69
2022/11/13 16:31:21;;;;;;;26.17;16.63;;;16.00;92.20;;;;;;5052179;28;20055;-69
2022/11/13 16:34:44;;;;;;;41.63;28.25;;;15.90;92.30;;;;;;5051693;28;20048;-68
2022/11/13 16:38:11;;;;;;;41.00;23.58;;;15.90;92.40;;;;;;5050716;28;20112;-68
2022/11/13 16:41:35;;;;;;;35.55;21.73;;;15.80;92.50;;;;;;5052007;28;20079;-69
2022/11/13 16:44:58;;;;;;;39.92;23.33;;;15.70;92.60;;;;;;5053347;28;20043;-69
2022/11/13 16:48:21;;;;;;;35.50;21.30;;;15.60;92.90;;;;;;5053725;28;20044;-69
2022/11/13 16:51:45;;;;;;;31.38;22.00;;;15.70;92.80;;;;;;5053734;28;20048;-69
2022/11/13 16:55:08;;;;;;;37.22;23.05;;;15.70;92.70;;;;;;5054375;28;20515;-69
2022/11/13 16:58:31;;;;;;;55.65;34.88;;;15.70;92.70;;;;;;5054253;28;20507;-69
2022/11/13 17:01:57;;;;;;;43.53;26.63;;;15.60;93.00;;;;;;5054081;28;20064;-69
2022/11/13 17:05:21;;;;;;;44.97;27.42;;;15.60;93.10;;;;;;5053651;28;20051;-69
2022/11/13 17:08:44;;;;;;;48.10;27.60;;;15.50;93.10;;;;;;5052923;28;20087;-68
2022/11/13 17:12:07;;;;;;;47.60;28.05;;;15.30;93.60;;;;;;5052963;28;20063;-69
2022/11/13 17:15:30;;;;;;;48.55;27.60;;;15.20;93.60;;;;;;5052097;28;20040;-69
2022/11/13 17:18:54;;;;;;;55.42;36.67;;;15.10;93.80;;;;;;5052156;28;20040;-68
2022/11/13 17:22:16;;;;;;;51.65;35.58;;;15.00;94.00;;;;;;5052725;28;20416;-69
2022/11/13 17:25:40;;;;;;;44.50;27.60;;;14.90;94.40;;;;;;5052906;28;20544;-69
2022/11/13 17:29:04;;;;;;;42.58;27.27;;;14.90;94.60;;;;;;5052959;28;20044;-69
2022/11/13 17:32:27;;;;;;;38.33;25.60;;;14.90;94.60;;;;;;5052990;28;20048;-70
2022/11/13 17:35:54;;;;;;;38.75;27.90;;;15.00;94.50;;;;;;5052440;28;20047;-69
2022/11/13 17:39:16;;;;;;;45.60;29.15;;;15.10;94.50;;;;;;5052523;28;20040;-69
2022/11/13 17:42:40;;;;;;;49.45;28.40;;;15.10;94.30;;;;;;5052367;28;20052;-70
2022/11/13 17:46:04;;;;;;;56.25;30.08;;;15.10;94.20;;;;;;5052347;28;20040;-69
2022/11/13 17:49:27;;;;;;;48.58;29.85;;;15.00;94.30;;;;;;5051963;28;20055;-69
2022/11/13 17:52:50;;;;;;;51.50;30.27;;;15.00;94.30;;;;;;5051487;28;20044;-69
2022/11/13 17:56:14;;;;;;;42.38;29.30;;;14.90;94.30;;;;;;5052221;28;20052;-70